»·PEaware :: UPS897 KRNO-KONT

UPS897 :: KRNO-KONT

FLIGHT INFORMATION

Flight Status: Arrived
Operator:
United Parcel Service
More flights by this operator :: More flights under this callsign
Pilot: Andrew C. (28419)
Aircraft: BOEING 757-200
(B752)
More flights by this aircraft type
Origin: KRNO Reno/Tahoe Intl
United States
Destination: KONT Ontario Intl
United States
More flights between these airports :: More routes between these airports
Route: +PVINE3 CRDDZ EHF ZIGGY7
File this flight plan on PilotEdge
Remarks: RMK / SIMBRIEF
Altitude:
(Current/Filed)
35,000ft
Speed:
(Current/Filed)
464kts
Departed: 22-Jul-20 05:13 PM
Arrived: 22-Jul-20 06:18 PM
Distance/Time
Traveled:
343nm/1:05
Distance/Time
To Go:
Arrived

Flight Plot

Page will automatically refresh every two minutes.


Map Options




Map Legend


Flown Route
Filed Route
Departure Airport
Arrival Airport
Navaid (VOR, NDB)
Fix

Horizontal Profiles

Position Reports

Time Latitude Longitude Heading Altitude Ground
Speed
22-Jul-20 16:23 39.509724 -119.773050 329 4426ft 0kts
22-Jul-20 16:24 39.509724 -119.773050 329 4426ft 0kts
22-Jul-20 16:25 39.509724 -119.773050 329 4426ft 0kts
22-Jul-20 16:26 39.509724 -119.773050 329 4426ft 0kts
22-Jul-20 16:27 39.509724 -119.773050 329 4426ft 0kts
22-Jul-20 16:28 39.509724 -119.773050 329 4426ft 0kts
22-Jul-20 16:29 39.509724 -119.773050 329 4426ft 0kts
22-Jul-20 16:30 39.509724 -119.773050 329 4426ft 0kts
22-Jul-20 16:31 39.509724 -119.773050 329 4426ft 0kts
22-Jul-20 16:32 39.509724 -119.773050 329 4426ft 0kts
22-Jul-20 16:33 39.509724 -119.773050 329 4426ft 0kts
22-Jul-20 16:34 39.509724 -119.773050 329 4426ft 0kts
22-Jul-20 16:35 39.509724 -119.773050 329 4426ft 0kts
22-Jul-20 16:36 39.509724 -119.773050 329 4426ft 0kts
22-Jul-20 16:37 39.509724 -119.773050 329 4426ft 0kts
22-Jul-20 16:38 39.509724 -119.773050 329 4426ft 0kts
22-Jul-20 16:39 39.509724 -119.773050 329 4426ft 0kts
22-Jul-20 16:40 39.509724 -119.773050 329 4426ft 0kts
22-Jul-20 16:41 39.509724 -119.773050 329 4426ft 0kts
22-Jul-20 16:42 39.509724 -119.773050 329 4426ft 0kts
22-Jul-20 16:43 39.509724 -119.773050 329 4426ft 0kts
22-Jul-20 16:44 39.509724 -119.773050 329 4426ft 0kts
22-Jul-20 16:45 39.509724 -119.773050 329 4426ft 0kts
22-Jul-20 16:46 39.509724 -119.773050 329 4426ft 0kts
22-Jul-20 16:47 39.509724 -119.773050 329 4426ft 0kts
22-Jul-20 16:48 39.509724 -119.773050 329 4426ft 0kts
22-Jul-20 16:49 39.509724 -119.773050 329 4426ft 0kts
22-Jul-20 16:50 39.509724 -119.773050 329 4426ft 0kts
22-Jul-20 16:51 39.509724 -119.773050 329 4426ft 0kts
22-Jul-20 16:52 39.509724 -119.773050 329 4426ft 0kts
22-Jul-20 16:53 39.509724 -119.773050 329 4426ft 0kts
22-Jul-20 16:54 39.509724 -119.773050 329 4426ft 0kts
22-Jul-20 16:55 39.509724 -119.773050 329 4426ft 0kts
22-Jul-20 16:56 39.509724 -119.773050 329 4426ft 0kts
22-Jul-20 16:57 39.509724 -119.773050 329 4426ft 0kts
22-Jul-20 16:59 39.509724 -119.773050 329 4426ft 0kts
22-Jul-20 17:00 39.509585 -119.772945 336 4426ft 1kts
22-Jul-20 17:01 39.509127 -119.773193 67 4426ft 1kts
22-Jul-20 17:02 39.509097 -119.773432 90 4426ft 0kts
22-Jul-20 17:03 39.509097 -119.773432 90 4426ft 0kts
22-Jul-20 17:04 39.509099 -119.772781 89 4426ft 4kts
22-Jul-20 17:05 39.507684 -119.771522 181 4426ft 7kts
22-Jul-20 17:06 39.505610 -119.771519 180 4426ft 7kts
22-Jul-20 17:07 39.501772 -119.771507 180 4426ft 18kts
22-Jul-20 17:08 39.497584 -119.771538 180 4426ft 11kts
22-Jul-20 17:09 39.493246 -119.771552 180 4426ft 19kts
22-Jul-20 17:10 39.489257 -119.770622 91 4426ft 0kts
22-Jul-20 17:11 39.489252 -119.769589 89 4426ft 12kts
22-Jul-20 17:12 39.489325 -119.766807 2 4426ft 1kts
22-Jul-20 17:12 39.510172 -119.766774 356 4437ft 176kts
22-Jul-20 17:14 39.575197 -119.766907 355 6007ft 241kts
22-Jul-20 17:15 39.622215 -119.828384 295 7913ft 270kts
22-Jul-20 17:15 39.651137 -119.901349 294 10077ft 277kts
22-Jul-20 17:16 39.622626 -119.997573 210 10797ft 354kts
22-Jul-20 17:17 39.527891 -119.991182 144 13645ft 364kts
22-Jul-20 17:19 39.428521 -119.905580 162 16802ft 373kts
22-Jul-20 17:19 39.342828 -119.880602 169 18809ft 383kts
22-Jul-20 17:20 39.235413 -119.856739 170 21068ft 395kts
22-Jul-20 17:21 39.125099 -119.833119 170 23146ft 406kts
22-Jul-20 17:22 39.011760 -119.809127 170 25039ft 416kts
22-Jul-20 17:23 38.895965 -119.784649 170 26662ft 428kts
22-Jul-20 17:24 38.776738 -119.759522 170 28136ft 438kts
22-Jul-20 17:25 38.655057 -119.733971 170 29513ft 448kts
22-Jul-20 17:26 38.530287 -119.707857 170 30698ft 458kts
22-Jul-20 17:27 38.403205 -119.681357 171 31812ft 465kts
22-Jul-20 17:28 38.275905 -119.654906 171 33197ft 463kts
22-Jul-20 17:29 38.148557 -119.628546 171 34439ft 461kts
22-Jul-20 17:30 38.022386 -119.602522 171 34989ft 459kts
22-Jul-20 17:31 37.896526 -119.576643 171 34989ft 458kts
22-Jul-20 17:32 37.770411 -119.550812 172 34977ft 458kts
22-Jul-20 17:33 37.644870 -119.525179 172 34974ft 457kts
22-Jul-20 17:34 37.519446 -119.499657 172 34974ft 457kts
22-Jul-20 17:35 37.393921 -119.474201 172 34974ft 457kts
22-Jul-20 17:36 37.268251 -119.448802 172 34972ft 457kts
22-Jul-20 17:37 37.142676 -119.423506 172 34864ft 457kts
22-Jul-20 17:38 37.017213 -119.398317 172 34826ft 457kts
22-Jul-20 17:39 36.891937 -119.373251 173 34827ft 457kts
22-Jul-20 17:40 36.766272 -119.348204 173 34828ft 457kts
22-Jul-20 17:41 36.640790 -119.323264 173 34825ft 457kts
22-Jul-20 17:42 36.515083 -119.298363 173 34824ft 457kts
22-Jul-20 17:43 36.389707 -119.273608 174 34824ft 458kts
22-Jul-20 17:44 36.264107 -119.248893 174 34824ft 458kts
22-Jul-20 17:45 36.138412 -119.224238 174 34823ft 458kts
22-Jul-20 17:46 36.012666 -119.199647 174 34823ft 457kts
22-Jul-20 17:47 35.887145 -119.175185 174 34819ft 460kts
22-Jul-20 17:48 35.760969 -119.150671 174 34816ft 460kts
22-Jul-20 17:49 35.634774 -119.126238 174 34816ft 460kts
22-Jul-20 17:50 35.508973 -119.099418 166 34823ft 464kts
22-Jul-20 17:51 35.398337 -119.014683 146 34888ft 475kts
22-Jul-20 17:52 35.295414 -118.917060 146 34681ft 443kts
22-Jul-20 17:53 35.197492 -118.824372 146 32478ft 444kts
22-Jul-20 17:54 35.098976 -118.731338 146 30557ft 450kts
22-Jul-20 17:55 35.013365 -118.617415 134 28624ft 450kts
22-Jul-20 17:56 34.933859 -118.501604 133 26712ft 437kts
22-Jul-20 17:57 34.857089 -118.389964 134 24886ft 423kts
22-Jul-20 17:58 34.782964 -118.282486 134 23096ft 409kts
22-Jul-20 17:59 34.710767 -118.178122 134 21346ft 396kts
22-Jul-20 18:00 34.640587 -118.076960 133 19671ft 387kts
22-Jul-20 18:01 34.585997 -117.964041 122 18073ft 382kts
22-Jul-20 18:02 34.534778 -117.852114 122 16571ft 376kts
22-Jul-20 18:04 34.476119 -117.724292 121 14810ft 367kts
22-Jul-20 18:04 34.435884 -117.636791 121 14009ft 324kts
22-Jul-20 18:05 34.392019 -117.541825 121 12894ft 318kts
22-Jul-20 18:06 34.349335 -117.449537 121 10578ft 305kts
22-Jul-20 18:07 34.310016 -117.364909 123 8872ft 283kts
22-Jul-20 18:08 34.243381 -117.326048 166 8028ft 270kts
22-Jul-20 18:09 34.176880 -117.305481 167 7788ft 218kts
22-Jul-20 18:10 34.118698 -117.294654 207 5818ft 213kts
22-Jul-20 18:11 34.075998 -117.342424 224 4612ft 207kts
22-Jul-20 18:12 34.054958 -117.400487 269 3914ft 184kts
22-Jul-20 18:13 34.054943 -117.456509 267 3018ft 162kts
22-Jul-20 18:14 34.054743 -117.506043 267 2191ft 133kts
22-Jul-20 18:15 34.054877 -117.550476 267 1540ft 135kts
22-Jul-20 18:16 34.054954 -117.594249 270 950ft 87kts
22-Jul-20 18:17 34.053840 -117.600626 89 950ft 10kts
22-Jul-20 18:18 34.053846 -117.597521 90 950ft 12kts
22-Jul-20 18:19 34.053828 -117.592363 89 950ft 17kts
22-Jul-20 18:20 34.053861 -117.586885 91 950ft 17kts

Navigation Log

Ident Type
Flight plan parsing failed, navigation log unavailable